Latest Coastal Weather Observations for Bunbury

IDW60701

Issued at 8:12 pm WST Saturday 28 March 2015 (issued every 10 minutes, with the page automatically refreshed every 10 minutes)

About coastal observations | Map of coastal stations | Coastal observations for WA | Marine services | Other Formats
Station Details ID: 009965 Name: BUNBURY Lat: -33.36 Lon: 115.64 Height: 5.2 m
Data from the previous 72 hours. | See also: Recent months at Bunbury
Date/Time
WST
Temp

°C
Wind Pressure Rain
since 9am
mm
Weather Cloud Vis
km
Sea
Height
m
Swell
Dir
 
Speed
knots
Gust
knots
hPa Trend Height
m
Period
s
Dir
28/08:00pm 19.4 S 5 7 1020.4 - 0.0 - - - - - - -
28/07:30pm 20.1 SSW 5 7 1020.1 - 0.0 - - - - - - -
28/07:00pm 20.6 SW 5 8 1019.7 - 0.0 - - - - - - -
28/06:30pm 20.8 WSW 7 11 1019.6 - 0.0 - - - - - - -
28/06:00pm 21.3 WSW 8 13 1019.5 - 0.0 - - - - - - -
28/05:30pm 21.7 WSW 10 15 1019.3 - 0.0 - - - - - - -
28/05:00pm 22.4 WSW 9 13 1019.3 - 0.0 - - - - - - -
28/04:30pm 22.5 W 10 15 1019.2 - 0.0 - - - - - - -
28/04:00pm 23.0 WSW 9 15 1019.2 - 0.0 - - - - - - -
28/03:30pm 22.4 W 12 18 1019.2 - 0.0 - - - - - - -
28/03:00pm 22.5 W 12 16 1019.4 - 0.0 - - - - - - -
28/02:30pm 22.6 W 12 16 1019.5 - 0.0 - - - - - - -
28/02:00pm 23.6 W 10 14 1019.6 - 0.0 - - - - - - -
28/01:30pm 23.5 W 9 13 1019.9 - 0.0 - - - - - - -
28/01:00pm 22.7 WSW 10 14 1020.1 - 0.0 - - - - - - -
28/12:30pm 23.3 WSW 8 12 1020.5 - 0.0 - - - - - - -
28/12:00pm 22.5 WSW 9 14 1020.9 - 0.0 - - - - - - -
28/11:30am 23.1 SSW 6 10 1021.1 - 0.0 - - - - - - -
28/11:00am 22.8 SSW 5 11 1021.4 - 0.0 - - - - - - -
28/10:30am 21.9 S 8 12 1021.6 - 0.0 - - - - - - -
28/10:00am 21.6 S 5 11 1021.7 - 0.0 - - - - - - -
28/09:30am 20.5 SSE 7 11 1021.8 - 0.0 - - - - - - -
28/09:00am 19.6 SE 7 11 1021.8 - 0.0 - - - - - - -
28/08:30am 18.3 SE 5 7 1021.8 - 0.0 - - - - - - -
28/08:00am 17.1 SE 3 4 1021.7 - 0.0 - - - - - - -
28/07:30am 14.9 S 2 3 1021.5 - 0.0 - - - - - - -
28/07:00am 13.2 CALM 0 1 1021.2 - 0.0 - - - - - - -
28/06:30am 13.8 S 2 2 1021.0 - 0.0 - - - - - - -
28/06:00am 14.2 S 2 3 1020.9 - 0.0 - - - - - - -
28/05:30am 14.9 S 3 4 1020.6 - 0.0 - - - - - - -
28/05:00am 14.9 S 5 7 1020.5 - 0.0 - - - - - - -
28/04:30am 15.0 S 5 7 1020.2 - 0.0 - - - - - - -
28/04:00am 15.1 S 6 7 1019.8 - 0.0 - - - - - - -
28/03:30am 15.0 S 5 7 1019.6 - 0.0 - - - - - - -
28/03:00am 15.0 S 4 5 1019.5 - 0.0 - - - - - - -
28/02:30am 14.9 S 4 5 1019.5 - 0.0 - - - - - - -
28/02:00am 15.4 S 3 4 1019.7 - 0.0 - - - - - - -
28/01:30am 16.1 SSE 3 5 1019.7 - 0.0 - - - - - - -
28/01:00am 16.3 S 5 7 1019.8 - 0.0 - - - - - - -
28/12:30am 16.3 S 5 7 1019.7 - 0.0 - - - - - - -
28/12:00am 16.5 S 5 6 1019.8 - 0.0 - - - - - - -
 
Date/Time
WST
Temp

°C
Wind Pressure Rain
since 9am
mm
Weather Cloud Vis
km
Sea
Height
m
Swell
Dir
 
Speed
knots
Gust
knots
hPa Trend Height
m
Period
s
Dir
27/11:30pm 16.8 SSW 4 5 1020.0 - 0.0 - - - - - - -
27/11:00pm 17.3 SSW 4 5 1020.0 - 0.0 - - - - - - -
27/10:30pm 17.9 SSE 3 4 1019.9 - 0.0 - - - - - - -
27/10:00pm 18.3 SE 4 5 1020.0 - 0.0 - - - - - - -
27/09:30pm 18.6 SSE 5 7 1020.2 - 0.0 - - - - - - -
27/09:00pm 18.4 SE 4 8 1020.3 - 0.0 - - - - - - -
27/08:30pm 19.1 SE 5 7 1020.2 - 0.0 - - - - - - -
27/08:00pm 19.3 S 5 7 1019.8 - 0.0 - - - - - - -
27/07:30pm 19.8 S 4 7 1019.4 - 0.0 - - - - - - -
27/07:00pm 20.4 S 3 5 1018.9 - 0.0 - - - - - - -
27/06:30pm 21.5 SSE 3 5 1018.6 - 0.0 - - - - - - -
27/06:00pm 22.5 SW 6 9 1018.6 - 0.0 - - - - - - -
27/05:30pm 22.9 SW 10 15 1018.7 - 0.0 - - - - - - -
27/05:00pm 22.7 WSW 11 18 1018.7 - 0.0 - - - - - - -
27/04:30pm 23.3 WSW 9 13 1018.6 - 0.0 - - - - - - -
27/04:00pm 24.5 WSW 8 12 1018.3 - 0.0 - - - - - - -
27/03:30pm 24.2 WSW 10 13 1018.4 - 0.0 - - - - - - -
27/03:00pm 24.2 W 10 13 1018.5 - 0.0 - - - - - - -
27/02:30pm 25.6 W 8 10 1018.5 - 0.0 - - - - - - -
27/02:00pm 25.0 W 8 11 1018.9 - 0.0 - - - - - - -
27/01:30pm 24.8 W 8 12 1019.2 - 0.0 - - - - - - -
27/01:00pm 25.6 W 4 7 1019.6 - 0.0 - - - - - - -
27/12:30pm 26.9 ENE 5 11 1019.8 - 0.0 - - - - - - -
27/12:00pm 25.9 E 5 9 1020.2 - 0.0 - - - - - - -
27/11:30am 25.8 ESE 5 8 1020.7 - 0.0 - - - - - - -
27/11:00am 25.6 ENE 5 8 1021.1 - 0.0 - - - - - - -
27/10:30am 24.8 NE 5 8 1021.3 - 0.0 - - - - - - -
27/10:00am 23.2 ENE 7 11 1021.4 - 0.0 - - - - - - -
27/09:30am 22.5 NE 7 10 1021.4 - 0.0 - - - - - - -
27/09:00am 21.6 ENE 5 7 1021.5 - 0.0 - - - - - - -
27/08:30am 20.0 E 8 11 1021.6 - 0.0 - - - - - - -
27/08:00am 20.1 ENE 6 9 1021.5 - 0.0 - - - - - - -
27/07:30am 19.2 ENE 4 6 1021.3 - 0.0 - - - - - - -
27/07:00am 19.1 ENE 4 8 1021.2 - 0.0 - - - - - - -
27/06:30am 19.1 ENE 6 9 1020.8 - 0.0 - - - - - - -
27/06:00am 19.1 ENE 6 8 1020.7 - 0.0 - - - - - - -
27/05:30am 18.8 ENE 8 11 1020.8 - 0.0 - - - - - - -
27/05:00am 19.0 ENE 6 8 1020.6 - 0.0 - - - - - - -
27/04:30am 19.3 ENE 6 9 1020.6 - 0.0 - - - - - - -
27/04:00am 19.8 ENE 5 8 1021.1 - 0.0 - - - - - - -
27/03:30am 19.7 ENE 4 6 1021.1 - 0.0 - - - - - - -
27/03:00am 19.2 NE 3 5 1021.3 - 0.0 - - - - - - -
27/02:30am 19.4 E 2 3 1021.5 - 0.0 - - - - - - -
27/02:00am 20.2 NE 4 5 1021.6 - 0.0 - - - - - - -
27/01:30am 20.9 NNE 5 8 1021.7 - 0.0 - - - - - - -
27/01:00am 21.2 NNE 5 7 1021.7 - 0.0 - - - - - - -
27/12:30am 21.5 N 7 11 1021.7 - 0.0 - - - - - - -
27/12:00am 21.9 N 7 10 1021.5 - 0.0 - - - - - - -
 
Date/Time
WST
Temp

°C
Wind Pressure Rain
since 9am
mm
Weather Cloud Vis
km
Sea
Height
m
Swell
Dir
 
Speed
knots
Gust
knots
hPa Trend Height
m
Period
s
Dir
26/11:30pm 22.3 NNW 8 13 1021.9 - 0.0 - - - - - - -
26/11:00pm 23.1 NNE 5 7 1021.6 - 0.0 - - - - - - -
26/10:30pm 22.6 NE 4 7 1021.4 - 0.0 - - - - - - -
26/10:00pm 20.1 NE 1 2 1021.3 - 0.0 - - - - - - -
26/09:30pm 20.3 SE 4 5 1021.2 - 0.0 - - - - - - -
26/09:00pm 21.2 SE 5 6 1021.4 - 0.0 - - - - - - -
26/08:30pm 21.5 SE 4 5 1021.3 - 0.0 - - - - - - -
26/08:00pm 21.7 ESE 4 5 1021.1 - 0.0 - - - - - - -
26/07:30pm 20.4 SE 3 3 1021.0 - 0.0 - - - - - - -
26/07:00pm 22.7 ESE 1 2 1020.8 - 0.0 - - - - - - -
26/06:30pm 25.4 E 3 5 1020.7 - 0.0 - - - - - - -
26/06:00pm 27.0 E 4 7 1020.7 - 0.0 - - - - - - -
26/05:30pm 28.4 ENE 6 10 1020.5 - 0.0 - - - - - - -
26/05:00pm 28.1 W 4 6 1020.4 - 0.0 - - - - - - -
26/04:30pm 27.3 WNW 6 8 1020.3 - 0.0 - - - - - - -
26/04:00pm 27.6 W 6 9 1020.3 - 0.0 - - - - - - -
26/03:30pm 27.7 W 5 7 1020.5 - 0.0 - - - - - - -
26/03:00pm 27.2 WSW 5 9 1020.7 - 0.0 - - - - - - -
26/02:30pm 27.9 WSW 6 9 1021.1 - 0.0 - - - - - - -
26/02:00pm 29.1 E 5 9 1021.4 - 0.0 - - - - - - -
26/01:30pm 28.3 NE 5 8 1022.0 - 0.0 - - - - - - -
26/01:00pm 27.9 ESE 7 11 1022.5 - 0.0 - - - - - - -
26/12:30pm 27.2 NE 7 10 1022.9 - 0.0 - - - - - - -
26/12:00pm 27.0 ENE 7 11 1023.4 - 0.0 - - - - - - -
26/11:30am 25.9 E 6 12 1023.8 - 0.0 - - - - - - -
26/11:00am 25.2 E 8 13 1024.2 - 0.0 - - - - - - -
26/10:30am 23.7 E 9 13 1024.6 - 0.0 - - - - - - -
26/10:00am 21.9 E 11 16 1024.8 - 0.0 - - - - - - -
26/09:30am 20.9 E 11 16 1025.1 - 0.0 - - - - - - -
26/09:00am 19.0 E 13 17 1025.0 - 0.0 - - - - - - -
26/08:30am 18.2 ENE 13 18 1025.2 - 0.0 - - - - - - -
26/08:00am 17.4 E 11 17 1025.2 - 0.0 - - - - - - -
26/07:30am 16.5 E 9 13 1025.5 - 0.0 - - - - - - -
26/07:00am 15.7 ENE 8 12 1025.6 - 0.0 - - - - - - -
26/06:30am 15.4 ENE 10 14 1025.4 - 0.0 - - - - - - -
26/06:00am 15.5 E 9 14 1025.1 - 0.0 - - - - - - -
26/05:30am 15.7 E 8 11 1025.1 - 0.0 - - - - - - -
26/05:00am 16.0 E 12 19 1024.7 - 0.0 - - - - - - -
26/04:30am 16.0 E 10 17 1024.5 - 0.0 - - - - - - -
26/04:00am 16.1 E 11 17 1024.5 - 0.0 - - - - - - -
26/03:30am 16.3 ESE 9 16 1024.6 - 0.0 - - - - - - -
26/03:00am 16.6 E 12 17 1024.7 - 0.0 - - - - - - -
26/02:30am 16.6 E 8 12 1024.9 - 0.0 - - - - - - -
26/02:00am 16.5 E 11 19 1025.0 - 0.0 - - - - - - -
26/01:30am 16.6 E 11 15 1025.1 - 0.0 - - - - - - -
26/01:00am 16.5 E 9 15 1025.5 - 0.0 - - - - - - -
26/12:30am 16.7 E 8 13 1025.5 - 0.0 - - - - - - -
26/12:00am 16.8 E 10 15 1025.4 - 0.0 - - - - - - -
 
Date/Time
WST
Temp

°C
Wind Pressure Rain
since 9am
mm
Weather Cloud Vis
km
Sea
Height
m
Swell
Dir
 
Speed
knots
Gust
knots
hPa Trend Height
m
Period
s
Dir
25/11:30pm 17.3 E 11 15 1025.4 - 0.0 - - - - - - -
25/11:00pm 17.4 ESE 10 17 1025.3 - 0.0 - - - - - - -
25/10:30pm 17.8 ESE 9 15 1025.2 - 0.0 - - - - - - -
25/10:00pm 18.4 E 10 18 1025.2 - 0.0 - - - - - - -
25/09:30pm 19.3 ESE 13 19 1024.9 - 0.0 - - - - - - -
25/09:00pm 20.1 ESE 12 17 1024.7 - 0.0 - - - - - - -
25/08:30pm 20.7 ESE 10 16 1024.5 - 0.0 - - - - - - -

Other Formats:

Comma delimited format used in spreadsheet applications
http://www.bom.gov.au/fwo/IDW60701/IDW60701.94604.axf

JavaScript Object Notation format (JSON) in row-major order
http://www.bom.gov.au/fwo/IDW60701/IDW60701.94604.json